sensor_id;sensor_type;location;lat;lon;timestamp;pressure;altitude;pressure_sealevel;temperature;humidity
20115;BME280;10218;42.874;25.320;2024-01-11T00:01:49;98362.66;;;-6.47;100.00
20115;BME280;10218;42.874;25.320;2024-01-11T00:04:16;98353.72;;;-6.71;100.00
20115;BME280;10218;42.874;25.320;2024-01-11T00:06:44;98357.44;;;-6.45;100.00
20115;BME280;10218;42.874;25.320;2024-01-11T00:09:12;98357.22;;;-6.72;100.00
20115;BME280;10218;42.874;25.320;2024-01-11T00:11:39;98353.81;;;-7.11;100.00
20115;BME280;10218;42.874;25.320;2024-01-11T00:14:06;98362.22;;;-7.37;100.00
20115;BME280;10218;42.874;25.320;2024-01-11T00:16:33;98357.00;;;-7.00;100.00
20115;BME280;10218;42.874;25.320;2024-01-11T00:19:01;98353.19;;;-6.85;100.00
20115;BME280;10218;42.874;25.320;2024-01-11T00:21:28;98357.38;;;-6.78;100.00
20115;BME280;10218;42.874;25.320;2024-01-11T00:23:55;98348.69;;;-6.43;100.00
20115;BME280;10218;42.874;25.320;2024-01-11T00:26:22;98354.72;;;-6.41;100.00
20115;BME280;10218;42.874;25.320;2024-01-11T00:28:49;98342.38;;;-6.67;100.00
20115;BME280;10218;42.874;25.320;2024-01-11T00:31:16;98343.47;;;-6.77;100.00
20115;BME280;10218;42.874;25.320;2024-01-11T00:33:43;98339.56;;;-6.95;100.00
20115;BME280;10218;42.874;25.320;2024-01-11T00:36:10;98338.34;;;-6.80;100.00
20115;BME280;10218;42.874;25.320;2024-01-11T00:38:37;98338.53;;;-6.86;100.00
20115;BME280;10218;42.874;25.320;2024-01-11T00:41:05;98331.13;;;-6.67;100.00
20115;BME280;10218;42.874;25.320;2024-01-11T00:43:32;98331.09;;;-6.66;100.00
20115;BME280;10218;42.874;25.320;2024-01-11T00:45:59;98334.59;;;-7.04;100.00
20115;BME280;10218;42.874;25.320;2024-01-11T00:48:26;98327.47;;;-6.96;100.00
20115;BME280;10218;42.874;25.320;2024-01-11T00:50:53;98342.00;;;-6.87;100.00
20115;BME280;10218;42.874;25.320;2024-01-11T00:53:20;98319.78;;;-6.65;100.00
20115;BME280;10218;42.874;25.320;2024-01-11T00:55:48;98328.66;;;-6.73;100.00
20115;BME280;10218;42.874;25.320;2024-01-11T00:58:15;98325.25;;;-6.41;100.00
20115;BME280;10218;42.874;25.320;2024-01-11T01:00:42;98308.94;;;-6.48;100.00
20115;BME280;10218;42.874;25.320;2024-01-11T01:03:09;98320.69;;;-6.66;100.00
20115;BME280;10218;42.874;25.320;2024-01-11T01:05:36;98307.16;;;-6.80;100.00
20115;BME280;10218;42.874;25.320;2024-01-11T01:08:03;98324.44;;;-6.77;100.00
20115;BME280;10218;42.874;25.320;2024-01-11T01:10:31;98313.31;;;-6.82;100.00
20115;BME280;10218;42.874;25.320;2024-01-11T01:12:57;98318.72;;;-6.58;100.00
20115;BME280;10218;42.874;25.320;2024-01-11T01:15:24;98308.87;;;-6.45;100.00
20115;BME280;10218;42.874;25.320;2024-01-11T01:17:52;98306.47;;;-6.53;100.00
20115;BME280;10218;42.874;25.320;2024-01-11T01:20:19;98307.09;;;-6.43;100.00
20115;BME280;10218;42.874;25.320;2024-01-11T01:22:46;98294.78;;;-6.36;100.00
20115;BME280;10218;42.874;25.320;2024-01-11T01:25:13;98294.37;;;-6.21;100.00
20115;BME280;10218;42.874;25.320;2024-01-11T01:27:40;98294.31;;;-6.51;100.00
20115;BME280;10218;42.874;25.320;2024-01-11T01:30:07;98287.03;;;-6.39;100.00
20115;BME280;10218;42.874;25.320;2024-01-11T01:32:36;98279.09;;;-6.33;100.00
20115;BME280;10218;42.874;25.320;2024-01-11T01:35:03;98279.47;;;-6.16;100.00
20115;BME280;10218;42.874;25.320;2024-01-11T01:37:30;98276.31;;;-5.96;100.00
20115;BME280;10218;42.874;25.320;2024-01-11T01:39:57;98274.28;;;-6.16;100.00
20115;BME280;10218;42.874;25.320;2024-01-11T01:42:24;98270.84;;;-6.18;100.00
20115;BME280;10218;42.874;25.320;2024-01-11T01:44:51;98270.16;;;-5.94;100.00
20115;BME280;10218;42.874;25.320;2024-01-11T01:47:19;98257.50;;;-6.06;100.00
20115;BME280;10218;42.874;25.320;2024-01-11T01:49:48;98253.31;;;-6.10;100.00
20115;BME280;10218;42.874;25.320;2024-01-11T01:52:16;98257.50;;;-6.06;100.00
20115;BME280;10218;42.874;25.320;2024-01-11T01:54:44;98242.25;;;-5.89;100.00
20115;BME280;10218;42.874;25.320;2024-01-11T01:57:11;98242.78;;;-6.07;100.00
20115;BME280;10218;42.874;25.320;2024-01-11T01:59:39;98252.28;;;-6.35;100.00
20115;BME280;10218;42.874;25.320;2024-01-11T02:02:07;98244.59;;;-6.71;100.00
20115;BME280;10218;42.874;25.320;2024-01-11T02:04:35;98240.87;;;-6.30;100.00
20115;BME280;10218;42.874;25.320;2024-01-11T02:07:02;98230.69;;;-6.08;100.00
20115;BME280;10218;42.874;25.320;2024-01-11T02:09:31;98231.22;;;-6.57;100.00
20115;BME280;10218;42.874;25.320;2024-01-11T02:11:59;98226.81;;;-6.86;100.00
20115;BME280;10218;42.874;25.320;2024-01-11T02:14:27;98232.94;;;-6.90;100.00
20115;BME280;10218;42.874;25.320;2024-01-11T02:16:54;98228.56;;;-6.86;100.00
20115;BME280;10218;42.874;25.320;2024-01-11T02:19:22;98222.28;;;-6.47;100.00
20115;BME280;10218;42.874;25.320;2024-01-11T02:21:50;98231.22;;;-6.26;100.00
20115;BME280;10218;42.874;25.320;2024-01-11T02:24:20;98221.97;;;-6.06;100.00
20115;BME280;10218;42.874;25.320;2024-01-11T02:27:04;98224.13;;;-5.92;100.00
20115;BME280;10218;42.874;25.320;2024-01-11T02:29:32;98224.72;;;-6.12;100.00
20115;BME280;10218;42.874;25.320;2024-01-11T02:32:00;98223.25;;;-6.20;100.00
20115;BME280;10218;42.874;25.320;2024-01-11T02:34:28;98225.59;;;-6.11;100.00
20115;BME280;10218;42.874;25.320;2024-01-11T02:36:56;98224.87;;;-6.16;100.00
20115;BME280;10218;42.874;25.320;2024-01-11T02:39:24;98223.31;;;-5.94;100.00
20115;BME280;10218;42.874;25.320;2024-01-11T02:41:56;98226.03;;;-5.97;100.00
20115;BME280;10218;42.874;25.320;2024-01-11T02:44:23;98216.06;;;-6.12;100.00
20115;BME280;10218;42.874;25.320;2024-01-11T02:46:50;98205.22;;;-6.26;100.00
20115;BME280;10218;42.874;25.320;2024-01-11T02:49:17;98212.72;;;-6.77;100.00
20115;BME280;10218;42.874;25.320;2024-01-11T02:51:45;98208.44;;;-6.80;100.00
20115;BME280;10218;42.874;25.320;2024-01-11T02:54:12;98212.50;;;-7.02;100.00
20115;BME280;10218;42.874;25.320;2024-01-11T02:56:39;98204.75;;;-6.71;100.00
20115;BME280;10218;42.874;25.320;2024-01-11T02:59:06;98198.84;;;-6.45;100.00
20115;BME280;10218;42.874;25.320;2024-01-11T03:01:33;98199.06;;;-6.55;100.00
20115;BME280;10218;42.874;25.320;2024-01-11T03:04:03;98194.41;;;-6.42;100.00
20115;BME280;10218;42.874;25.320;2024-01-11T03:06:31;98193.50;;;-6.12;100.00
20115;BME280;10218;42.874;25.320;2024-01-11T03:08:58;98183.97;;;-6.11;100.00
20115;BME280;10218;42.874;25.320;2024-01-11T03:11:25;98185.59;;;-6.09;100.00
20115;BME280;10218;42.874;25.320;2024-01-11T03:13:53;98178.25;;;-5.94;100.00
20115;BME280;10218;42.874;25.320;2024-01-11T03:16:20;98182.66;;;-6.26;100.00
20115;BME280;10218;42.874;25.320;2024-01-11T03:18:47;98180.66;;;-6.16;100.00
20115;BME280;10218;42.874;25.320;2024-01-11T03:21:15;98177.38;;;-6.52;100.00
20115;BME280;10218;42.874;25.320;2024-01-11T03:23:42;98170.88;;;-6.37;100.00
20115;BME280;10218;42.874;25.320;2024-01-11T03:26:13;98168.19;;;-6.96;100.00
20115;BME280;10218;42.874;25.320;2024-01-11T03:28:41;98160.72;;;-7.08;100.00
20115;BME280;10218;42.874;25.320;2024-01-11T03:31:09;98152.34;;;-6.87;100.00
20115;BME280;10218;42.874;25.320;2024-01-11T03:33:36;98163.03;;;-6.98;100.00
20115;BME280;10218;42.874;25.320;2024-01-11T03:36:10;98151.22;;;-7.09;100.00
20115;BME280;10218;42.874;25.320;2024-01-11T03:38:37;98152.28;;;-7.16;100.00
20115;BME280;10218;42.874;25.320;2024-01-11T03:41:08;98151.38;;;-6.83;100.00
20115;BME280;10218;42.874;25.320;2024-01-11T03:43:38;98153.56;;;-7.00;100.00
20115;BME280;10218;42.874;25.320;2024-01-11T03:46:06;98148.16;;;-6.91;100.00
20115;BME280;10218;42.874;25.320;2024-01-11T03:48:33;98142.97;;;-6.93;100.00
20115;BME280;10218;42.874;25.320;2024-01-11T03:51:02;98145.72;;;-6.97;100.00
20115;BME280;10218;42.874;25.320;2024-01-11T03:53:30;98143.09;;;-6.97;100.00
20115;BME280;10218;42.874;25.320;2024-01-11T03:55:57;98141.84;;;-6.82;100.00
20115;BME280;10218;42.874;25.320;2024-01-11T03:58:24;98137.81;;;-6.94;100.00
20115;BME280;10218;42.874;25.320;2024-01-11T04:00:51;98144.72;;;-6.93;100.00
20115;BME280;10218;42.874;25.320;2024-01-11T04:03:18;98138.41;;;-6.54;100.00
20115;BME280;10218;42.874;25.320;2024-01-11T04:05:45;98144.41;;;-6.81;100.00
20115;BME280;10218;42.874;25.320;2024-01-11T04:08:12;98143.25;;;-6.41;100.00
20115;BME280;10218;42.874;25.320;2024-01-11T04:10:40;98136.59;;;-6.81;100.00
20115;BME280;10218;42.874;25.320;2024-01-11T04:13:07;98127.84;;;-7.09;100.00
20115;BME280;10218;42.874;25.320;2024-01-11T04:15:34;98128.63;;;-6.75;100.00
20115;BME280;10218;42.874;25.320;2024-01-11T04:18:02;98127.56;;;-6.38;100.00
20115;BME280;10218;42.874;25.320;2024-01-11T04:20:29;98122.94;;;-6.29;100.00
20115;BME280;10218;42.874;25.320;2024-01-11T04:22:56;98122.22;;;-6.34;100.00
20115;BME280;10218;42.874;25.320;2024-01-11T04:25:23;98127.53;;;-6.37;100.00
20115;BME280;10218;42.874;25.320;2024-01-11T04:27:50;98112.53;;;-6.29;100.00
20115;BME280;10218;42.874;25.320;2024-01-11T04:30:17;98114.69;;;-6.43;100.00
20115;BME280;10218;42.874;25.320;2024-01-11T04:32:45;98119.72;;;-6.09;100.00
20115;BME280;10218;42.874;25.320;2024-01-11T04:35:12;98114.62;;;-6.40;100.00
20115;BME280;10218;42.874;25.320;2024-01-11T04:37:39;98111.25;;;-6.43;100.00
20115;BME280;10218;42.874;25.320;2024-01-11T04:40:07;98118.69;;;-6.31;100.00
20115;BME280;10218;42.874;25.320;2024-01-11T04:42:34;98124.19;;;-6.13;100.00
20115;BME280;10218;42.874;25.320;2024-01-11T04:45:01;98122.47;;;-6.41;100.00
20115;BME280;10218;42.874;25.320;2024-01-11T04:47:29;98118.44;;;-6.52;100.00
20115;BME280;10218;42.874;25.320;2024-01-11T04:49:56;98110.22;;;-6.67;100.00
20115;BME280;10218;42.874;25.320;2024-01-11T04:52:23;98117.13;;;-6.97;100.00
20115;BME280;10218;42.874;25.320;2024-01-11T04:54:51;98122.81;;;-6.54;100.00
20115;BME280;10218;42.874;25.320;2024-01-11T04:57:18;98119.47;;;-6.88;100.00
20115;BME280;10218;42.874;25.320;2024-01-11T04:59:45;98116.75;;;-6.54;100.00
20115;BME280;10218;42.874;25.320;2024-01-11T05:02:13;98113.94;;;-7.07;100.00
20115;BME280;10218;42.874;25.320;2024-01-11T05:04:40;98103.16;;;-7.24;100.00
20115;BME280;10218;42.874;25.320;2024-01-11T05:07:07;98115.62;;;-6.75;100.00
20115;BME280;10218;42.874;25.320;2024-01-11T05:09:34;98113.94;;;-7.07;100.00
20115;BME280;10218;42.874;25.320;2024-01-11T05:12:01;98112.59;;;-6.60;100.00
20115;BME280;10218;42.874;25.320;2024-01-11T05:14:29;98105.78;;;-7.25;100.00
20115;BME280;10218;42.874;25.320;2024-01-11T05:16:56;98111.88;;;-6.96;100.00
20115;BME280;10218;42.874;25.320;2024-01-11T05:19:23;98107.66;;;-7.00;100.00
20115;BME280;10218;42.874;25.320;2024-01-11T05:21:50;98105.59;;;-6.58;100.00
20115;BME280;10218;42.874;25.320;2024-01-11T05:24:17;98099.97;;;-6.72;100.00
20115;BME280;10218;42.874;25.320;2024-01-11T05:26:45;98098.25;;;-6.73;100.00
20115;BME280;10218;42.874;25.320;2024-01-11T05:29:12;98098.56;;;-6.83;100.00
20115;BME280;10218;42.874;25.320;2024-01-11T05:31:40;98084.47;;;-7.06;100.00
20115;BME280;10218;42.874;25.320;2024-01-11T05:34:07;98075.41;;;-6.91;100.00
20115;BME280;10218;42.874;25.320;2024-01-11T05:36:35;98086.53;;;-6.57;100.00
20115;BME280;10218;42.874;25.320;2024-01-11T05:39:03;98087.37;;;-6.56;100.00
20115;BME280;10218;42.874;25.320;2024-01-11T05:41:30;98083.22;;;-6.62;100.00
20115;BME280;10218;42.874;25.320;2024-01-11T05:43:57;98076.41;;;-6.66;100.00
20115;BME280;10218;42.874;25.320;2024-01-11T05:46:24;98081.09;;;-6.78;100.00
20115;BME280;10218;42.874;25.320;2024-01-11T05:48:51;98054.97;;;-7.03;100.00
20115;BME280;10218;42.874;25.320;2024-01-11T05:51:18;98073.25;;;-6.77;100.00
20115;BME280;10218;42.874;25.320;2024-01-11T05:53:46;98065.56;;;-7.11;100.00
20115;BME280;10218;42.874;25.320;2024-01-11T05:56:13;98069.50;;;-6.67;100.00
20115;BME280;10218;42.874;25.320;2024-01-11T05:58:40;98063.50;;;-6.69;100.00
20115;BME280;10218;42.874;25.320;2024-01-11T06:01:07;98066.16;;;-6.42;100.00
20115;BME280;10218;42.874;25.320;2024-01-11T06:03:34;98053.06;;;-6.67;100.00
20115;BME280;10218;42.874;25.320;2024-01-11T06:06:02;98054.88;;;-7.00;100.00
20115;BME280;10218;42.874;25.320;2024-01-11T06:08:30;98040.72;;;-7.19;100.00
20115;BME280;10218;42.874;25.320;2024-01-11T06:10:58;98045.91;;;-7.19;100.00
20115;BME280;10218;42.874;25.320;2024-01-11T06:13:25;98040.13;;;-7.00;100.00
20115;BME280;10218;42.874;25.320;2024-01-11T06:15:53;98043.59;;;-6.99;100.00
20115;BME280;10218;42.874;25.320;2024-01-11T06:18:20;98044.97;;;-7.17;100.00
20115;BME280;10218;42.874;25.320;2024-01-11T06:20:47;98049.50;;;-6.94;100.00
20115;BME280;10218;42.874;25.320;2024-01-11T06:23:15;98049.03;;;-7.07;100.00
20115;BME280;10218;42.874;25.320;2024-01-11T06:25:43;98044.50;;;-6.71;100.00
20115;BME280;10218;42.874;25.320;2024-01-11T06:28:12;98039.84;;;-6.32;100.00
20115;BME280;10218;42.874;25.320;2024-01-11T06:30:40;98032.22;;;-6.38;100.00
20115;BME280;10218;42.874;25.320;2024-01-11T06:33:07;98029.88;;;-6.75;100.00
20115;BME280;10218;42.874;25.320;2024-01-11T06:35:34;98026.41;;;-6.74;100.00
20115;BME280;10218;42.874;25.320;2024-01-11T06:38:01;98006.66;;;-7.09;100.00
20115;BME280;10218;42.874;25.320;2024-01-11T06:40:29;98015.53;;;-6.59;100.00
20115;BME280;10218;42.874;25.320;2024-01-11T06:42:56;98004.59;;;-6.40;100.00
20115;BME280;10218;42.874;25.320;2024-01-11T06:45:23;98004.34;;;-6.07;100.00
20115;BME280;10218;42.874;25.320;2024-01-11T06:47:51;97983.97;;;-6.46;100.00
20115;BME280;10218;42.874;25.320;2024-01-11T06:50:18;97987.50;;;-6.21;100.00
20115;BME280;10218;42.874;25.320;2024-01-11T06:52:45;97999.94;;;-5.07;100.00
20115;BME280;10218;42.874;25.320;2024-01-11T06:55:12;97992.09;;;-3.55;100.00
20115;BME280;10218;42.874;25.320;2024-01-11T06:57:39;97985.50;;;-3.83;100.00
20115;BME280;10218;42.874;25.320;2024-01-11T07:00:07;97981.75;;;-2.42;100.00
20115;BME280;10218;42.874;25.320;2024-01-11T07:02:34;97984.25;;;-2.39;100.00
20115;BME280;10218;42.874;25.320;2024-01-11T07:05:02;97979.03;;;-1.69;100.00
20115;BME280;10218;42.874;25.320;2024-01-11T07:07:29;97990.47;;;-1.20;100.00
20115;BME280;10218;42.874;25.320;2024-01-11T07:09:56;97979.97;;;0.67;83.04
20115;BME280;10218;42.874;25.320;2024-01-11T07:12:23;97981.56;;;1.95;60.55
20115;BME280;10218;42.874;25.320;2024-01-11T07:14:51;97958.81;;;3.60;52.24
20115;BME280;10218;42.874;25.320;2024-01-11T07:17:18;97985.62;;;-0.95;74.76
20115;BME280;10218;42.874;25.320;2024-01-11T07:19:46;97982.94;;;1.05;68.27
20115;BME280;10218;42.874;25.320;2024-01-11T07:22:13;97981.63;;;-0.37;81.48
20115;BME280;10218;42.874;25.320;2024-01-11T07:24:41;97979.59;;;-0.32;86.10
20115;BME280;10218;42.874;25.320;2024-01-11T07:27:08;97973.72;;;2.47;62.82
20115;BME280;10218;42.874;25.320;2024-01-11T07:29:35;97975.47;;;1.54;59.34
20115;BME280;10218;42.874;25.320;2024-01-11T07:32:03;97971.50;;;3.92;51.80
20115;BME280;10218;42.874;25.320;2024-01-11T07:34:30;97969.16;;;3.14;52.40
20115;BME280;10218;42.874;25.320;2024-01-11T07:36:58;97978.00;;;2.88;53.12
20115;BME280;10218;42.874;25.320;2024-01-11T07:39:25;97976.53;;;3.22;53.07
20115;BME280;10218;42.874;25.320;2024-01-11T07:41:52;97982.44;;;2.87;53.10
20115;BME280;10218;42.874;25.320;2024-01-11T07:44:19;97974.56;;;3.62;50.51
20115;BME280;10218;42.874;25.320;2024-01-11T07:46:48;97966.22;;;3.92;51.04
20115;BME280;10218;42.874;25.320;2024-01-11T07:49:15;97962.00;;;4.71;48.87
20115;BME280;10218;42.874;25.320;2024-01-11T07:51:42;97951.84;;;3.96;49.91
20115;BME280;10218;42.874;25.320;2024-01-11T07:54:09;97951.25;;;4.27;50.37
20115;BME280;10218;42.874;25.320;2024-01-11T07:56:36;97947.56;;;4.06;50.96
20115;BME280;10218;42.874;25.320;2024-01-11T07:59:03;97938.66;;;6.31;46.84
20115;BME280;10218;42.874;25.320;2024-01-11T08:01:31;97947.34;;;5.90;46.03
20115;BME280;10218;42.874;25.320;2024-01-11T08:04:01;97939.91;;;6.27;46.38
20115;BME280;10218;42.874;25.320;2024-01-11T08:06:29;97952.88;;;4.98;46.77
20115;BME280;10218;42.874;25.320;2024-01-11T08:08:57;97937.00;;;6.51;46.19
20115;BME280;10218;42.874;25.320;2024-01-11T08:11:24;97937.63;;;5.57;46.59
20115;BME280;10218;42.874;25.320;2024-01-11T08:13:52;97937.63;;;6.22;47.09
20115;BME280;10218;42.874;25.320;2024-01-11T08:16:21;97940.47;;;4.76;49.42
20115;BME280;10218;42.874;25.320;2024-01-11T08:18:50;97927.84;;;6.23;46.77
20115;BME280;10218;42.874;25.320;2024-01-11T08:21:17;97935.72;;;8.46;41.81
20115;BME280;10218;42.874;25.320;2024-01-11T08:23:44;97933.16;;;9.49;41.06
20115;BME280;10218;42.874;25.320;2024-01-11T08:26:12;97935.59;;;6.15;44.98
20115;BME280;10218;42.874;25.320;2024-01-11T08:28:41;97940.88;;;7.29;44.14
20115;BME280;10218;42.874;25.320;2024-01-11T08:31:08;97932.59;;;6.40;44.56
20115;BME280;10218;42.874;25.320;2024-01-11T08:33:36;97946.19;;;6.15;45.85
20115;BME280;10218;42.874;25.320;2024-01-11T08:36:04;97932.69;;;6.91;46.03
20115;BME280;10218;42.874;25.320;2024-01-11T08:38:31;97928.09;;;9.46;41.31
20115;BME280;10218;42.874;25.320;2024-01-11T08:40:59;97945.66;;;6.84;42.66
20115;BME280;10218;42.874;25.320;2024-01-11T08:43:26;97917.34;;;10.99;37.76
20115;BME280;10218;42.874;25.320;2024-01-11T08:45:54;97928.75;;;12.85;34.63
20115;BME280;10218;42.874;25.320;2024-01-11T08:48:21;97927.56;;;10.60;36.78
20115;BME280;10218;42.874;25.320;2024-01-11T08:50:49;97924.94;;;7.29;41.81
20115;BME280;10218;42.874;25.320;2024-01-11T08:53:16;97930.59;;;9.84;40.58
20115;BME280;10218;42.874;25.320;2024-01-11T08:55:43;97919.31;;;9.91;39.12
20115;BME280;10218;42.874;25.320;2024-01-11T08:58:11;97922.34;;;12.37;33.90
20115;BME280;10218;42.874;25.320;2024-01-11T09:00:38;97925.78;;;10.15;35.86
20115;BME280;10218;42.874;25.320;2024-01-11T09:03:06;97922.31;;;9.04;37.91
20115;BME280;10218;42.874;25.320;2024-01-11T09:05:33;97918.00;;;9.40;37.66
20115;BME280;10218;42.874;25.320;2024-01-11T09:08:00;97905.84;;;9.65;39.17
20115;BME280;10218;42.874;25.320;2024-01-11T09:10:27;97894.66;;;11.03;34.95
20115;BME280;10218;42.874;25.320;2024-01-11T09:12:54;97893.72;;;12.70;34.13
20115;BME280;10218;42.874;25.320;2024-01-11T09:15:21;97886.62;;;8.01;39.63
20115;BME280;10218;42.874;25.320;2024-01-11T09:17:49;97870.62;;;12.53;34.42
20115;BME280;10218;42.874;25.320;2024-01-11T09:20:17;97861.03;;;9.86;37.68
20115;BME280;10218;42.874;25.320;2024-01-11T09:22:45;97847.91;;;13.28;33.36
20115;BME280;10218;42.874;25.320;2024-01-11T09:25:13;97855.56;;;12.44;32.39
20115;BME280;10218;42.874;25.320;2024-01-11T09:27:40;97854.75;;;10.22;35.63
20115;BME280;10218;42.874;25.320;2024-01-11T09:30:07;97842.28;;;11.60;35.97
20115;BME280;10218;42.874;25.320;2024-01-11T09:32:36;97843.66;;;10.53;35.55
20115;BME280;10218;42.874;25.320;2024-01-11T09:35:03;97845.84;;;10.75;34.46
20115;BME280;10218;42.874;25.320;2024-01-11T09:37:32;97841.12;;;10.95;32.41
20115;BME280;10218;42.874;25.320;2024-01-11T09:39:59;97832.78;;;10.98;33.10
20115;BME280;10218;42.874;25.320;2024-01-11T09:42:27;97825.06;;;10.43;36.39
20115;BME280;10218;42.874;25.320;2024-01-11T09:44:56;97822.03;;;10.38;37.48
20115;BME280;10218;42.874;25.320;2024-01-11T09:47:24;97815.34;;;12.68;31.92
20115;BME280;10218;42.874;25.320;2024-01-11T09:49:53;97817.47;;;9.23;34.72
20115;BME280;10218;42.874;25.320;2024-01-11T09:52:22;97803.91;;;9.61;35.01
20115;BME280;10218;42.874;25.320;2024-01-11T09:54:52;97799.31;;;10.86;35.81
20115;BME280;10218;42.874;25.320;2024-01-11T09:57:24;97797.44;;;9.81;35.72
20115;BME280;10218;42.874;25.320;2024-01-11T09:59:55;97796.72;;;12.10;32.57
20115;BME280;10218;42.874;25.320;2024-01-11T10:02:23;97803.84;;;9.53;34.43
20115;BME280;10218;42.874;25.320;2024-01-11T10:04:52;97787.84;;;9.26;36.49
20115;BME280;10218;42.874;25.320;2024-01-11T10:07:22;97776.03;;;10.09;35.52
20115;BME280;10218;42.874;25.320;2024-01-11T10:09:49;97785.84;;;10.26;36.84
20115;BME280;10218;42.874;25.320;2024-01-11T10:12:23;97778.09;;;11.68;34.81
20115;BME280;10218;42.874;25.320;2024-01-11T10:14:52;97780.72;;;11.60;33.04
20115;BME280;10218;42.874;25.320;2024-01-11T10:17:19;97787.31;;;10.64;34.28
20115;BME280;10218;42.874;25.320;2024-01-11T10:19:49;97783.37;;;10.50;33.86
20115;BME280;10218;42.874;25.320;2024-01-11T10:22:17;97772.34;;;9.12;36.00
20115;BME280;10218;42.874;25.320;2024-01-11T10:24:44;97769.56;;;11.23;33.67
20115;BME280;10218;42.874;25.320;2024-01-11T10:27:12;97764.06;;;12.63;30.72
20115;BME280;10218;42.874;25.320;2024-01-11T10:29:39;97762.34;;;11.15;32.68
20115;BME280;10218;42.874;25.320;2024-01-11T10:32:06;97766.03;;;13.94;29.65
20115;BME280;10218;42.874;25.320;2024-01-11T10:34:33;97759.28;;;11.44;30.61
20115;BME280;10218;42.874;25.320;2024-01-11T10:37:00;97745.91;;;12.90;30.55
20115;BME280;10218;42.874;25.320;2024-01-11T10:39:28;97745.19;;;12.08;32.83
20115;BME280;10218;42.874;25.320;2024-01-11T10:42:05;97737.16;;;14.34;29.93
20115;BME280;10218;42.874;25.320;2024-01-11T10:44:34;97730.84;;;14.64;28.51
20115;BME280;10218;42.874;25.320;2024-01-11T10:47:03;97726.94;;;13.69;29.14
20115;BME280;10218;42.874;25.320;2024-01-11T10:49:36;97726.53;;;12.63;31.14
20115;BME280;10218;42.874;25.320;2024-01-11T10:52:07;97714.59;;;14.05;30.38
20115;BME280;10218;42.874;25.320;2024-01-11T10:54:38;97721.41;;;9.85;33.70
20115;BME280;10218;42.874;25.320;2024-01-11T10:57:06;97716.38;;;11.11;34.08
20115;BME280;10218;42.874;25.320;2024-01-11T10:59:36;97706.63;;;13.13;33.18
20115;BME280;10218;42.874;25.320;2024-01-11T11:02:06;97707.50;;;12.26;33.42
20115;BME280;10218;42.874;25.320;2024-01-11T11:04:35;97701.94;;;13.91;30.10
20115;BME280;10218;42.874;25.320;2024-01-11T11:07:05;97702.94;;;14.28;31.72
20115;BME280;10218;42.874;25.320;2024-01-11T11:09:37;97693.44;;;12.16;35.07
20115;BME280;10218;42.874;25.320;2024-01-11T11:12:05;97681.12;;;14.08;32.06
20115;BME280;10218;42.874;25.320;2024-01-11T11:14:34;97684.84;;;12.44;33.66
20115;BME280;10218;42.874;25.320;2024-01-11T11:17:02;97682.88;;;10.23;35.40
20115;BME280;10218;42.874;25.320;2024-01-11T11:19:31;97683.47;;;10.69;34.67
20115;BME280;10218;42.874;25.320;2024-01-11T11:21:58;97674.31;;;12.43;33.77
20115;BME280;10218;42.874;25.320;2024-01-11T11:24:26;97668.47;;;12.31;33.41
20115;BME280;10218;42.874;25.320;2024-01-11T11:26:52;97660.06;;;12.98;33.05
20115;BME280;10218;42.874;25.320;2024-01-11T11:29:19;97658.06;;;14.66;32.52
20115;BME280;10218;42.874;25.320;2024-01-11T11:31:47;97654.25;;;14.89;32.42
20115;BME280;10218;42.874;25.320;2024-01-11T11:34:20;97654.50;;;11.73;35.13
20115;BME280;10218;42.874;25.320;2024-01-11T11:36:47;97653.84;;;10.20;36.91
20115;BME280;10218;42.874;25.320;2024-01-11T11:39:18;97635.50;;;10.59;38.00
20115;BME280;10218;42.874;25.320;2024-01-11T11:41:47;97642.38;;;9.84;38.05
20115;BME280;10218;42.874;25.320;2024-01-11T11:44:16;97638.66;;;11.05;36.56
20115;BME280;10218;42.874;25.320;2024-01-11T11:46:43;97625.00;;;10.06;37.06
20115;BME280;10218;42.874;25.320;2024-01-11T11:49:12;97632.47;;;11.04;36.89
20115;BME280;10218;42.874;25.320;2024-01-11T11:51:40;97629.44;;;15.23;32.55
20115;BME280;10218;42.874;25.320;2024-01-11T11:54:08;97618.38;;;14.53;32.89
20115;BME280;10218;42.874;25.320;2024-01-11T11:56:42;97609.81;;;14.79;32.57
20115;BME280;10218;42.874;25.320;2024-01-11T11:59:09;97610.91;;;12.19;32.50
20115;BME280;10218;42.874;25.320;2024-01-11T12:01:37;97593.19;;;15.05;31.25
20115;BME280;10218;42.874;25.320;2024-01-11T12:04:04;97599.78;;;11.75;34.37
20115;BME280;10218;42.874;25.320;2024-01-11T12:06:31;97597.41;;;11.56;35.35
20115;BME280;10218;42.874;25.320;2024-01-11T12:09:00;97600.56;;;11.43;36.62
20115;BME280;10218;42.874;25.320;2024-01-11T12:11:27;97592.09;;;12.35;34.69
20115;BME280;10218;42.874;25.320;2024-01-11T12:13:55;97582.44;;;13.87;33.37
20115;BME280;10218;42.874;25.320;2024-01-11T12:16:24;97581.50;;;11.38;34.36
20115;BME280;10218;42.874;25.320;2024-01-11T12:18:51;97571.31;;;11.50;33.40
20115;BME280;10218;42.874;25.320;2024-01-11T12:21:19;97573.75;;;10.70;34.05
20115;BME280;10218;42.874;25.320;2024-01-11T12:23:46;97568.53;;;10.61;34.79
20115;BME280;10218;42.874;25.320;2024-01-11T12:26:16;97557.53;;;12.18;33.75
20115;BME280;10218;42.874;25.320;2024-01-11T12:28:48;97548.88;;;15.22;29.72
20115;BME280;10218;42.874;25.320;2024-01-11T12:31:17;97553.59;;;11.65;32.18
20115;BME280;10218;42.874;25.320;2024-01-11T12:33:47;97547.75;;;11.13;33.37
20115;BME280;10218;42.874;25.320;2024-01-11T12:36:15;97546.56;;;11.72;33.08
20115;BME280;10218;42.874;25.320;2024-01-11T12:38:47;97542.56;;;11.11;34.35
20115;BME280;10218;42.874;25.320;2024-01-11T12:41:16;97539.00;;;13.98;30.71
20115;BME280;10218;42.874;25.320;2024-01-11T12:43:43;97546.97;;;9.86;33.70
20115;BME280;10218;42.874;25.320;2024-01-11T12:46:11;97546.75;;;11.22;34.72
20115;BME280;10218;42.874;25.320;2024-01-11T12:48:38;97536.34;;;12.39;32.30